sensor_id;sensor_type;location;lat;lon;timestamp;P1;durP1;ratioP1;P2;durP2;ratioP2
37107;SDS011;23019;49.300;6.846;2022-08-27T00:01:22;1.80;;;1.70;;
37107;SDS011;23019;49.300;6.846;2022-08-27T00:03:23;2.67;;;1.52;;
37107;SDS011;23019;49.300;6.846;2022-08-27T00:05:24;2.33;;;1.58;;
37107;SDS011;23019;49.300;6.846;2022-08-27T00:07:25;2.67;;;1.25;;
37107;SDS011;23019;49.300;6.846;2022-08-27T00:09:26;1.30;;;1.17;;
37107;SDS011;23019;49.300;6.846;2022-08-27T00:11:27;1.88;;;1.15;;
37107;SDS011;23019;49.300;6.846;2022-08-27T00:13:28;1.42;;;1.33;;
37107;SDS011;23019;49.300;6.846;2022-08-27T00:15:29;1.38;;;1.27;;
37107;SDS011;23019;49.300;6.846;2022-08-27T00:17:31;1.20;;;1.10;;
37107;SDS011;23019;49.300;6.846;2022-08-27T00:19:32;1.35;;;1.25;;
37107;SDS011;23019;49.300;6.846;2022-08-27T00:21:33;1.70;;;1.25;;
37107;SDS011;23019;49.300;6.846;2022-08-27T00:23:34;0.95;;;0.95;;
37107;SDS011;23019;49.300;6.846;2022-08-27T00:25:35;3.35;;;1.73;;
37107;SDS011;23019;49.300;6.846;2022-08-27T00:27:36;1.50;;;1.40;;
37107;SDS011;23019;49.300;6.846;2022-08-27T00:29:38;1.10;;;1.00;;
37107;SDS011;23019;49.300;6.846;2022-08-27T00:31:38;1.10;;;0.98;;
37107;SDS011;23019;49.300;6.846;2022-08-27T00:33:39;1.30;;;1.20;;
37107;SDS011;23019;49.300;6.846;2022-08-27T00:35:40;1.10;;;1.00;;
37107;SDS011;23019;49.300;6.846;2022-08-27T00:37:41;1.15;;;1.05;;
37107;SDS011;23019;49.300;6.846;2022-08-27T00:39:42;1.23;;;1.13;;
37107;SDS011;23019;49.300;6.846;2022-08-27T00:41:46;1.38;;;1.27;;
37107;SDS011;23019;49.300;6.846;2022-08-27T00:43:57;1.30;;;1.20;;
37107;SDS011;23019;49.300;6.846;2022-08-27T00:46:07;1.00;;;1.00;;
37107;SDS011;23019;49.300;6.846;2022-08-27T00:48:13;1.60;;;1.00;;
37107;SDS011;23019;49.300;6.846;2022-08-27T00:50:17;1.33;;;1.10;;
37107;SDS011;23019;49.300;6.846;2022-08-27T00:54:27;1.48;;;1.25;;
37107;SDS011;23019;49.300;6.846;2022-08-27T00:56:31;1.50;;;1.40;;
37107;SDS011;23019;49.300;6.846;2022-08-27T00:58:39;1.67;;;1.58;;
37107;SDS011;23019;49.300;6.846;2022-08-27T01:00:45;1.20;;;1.00;;
37107;SDS011;23019;49.300;6.846;2022-08-27T01:02:46;1.35;;;1.23;;
37107;SDS011;23019;49.300;6.846;2022-08-27T01:04:57;1.50;;;1.05;;
37107;SDS011;23019;49.300;6.846;2022-08-27T01:07:00;1.38;;;1.25;;
37107;SDS011;23019;49.300;6.846;2022-08-27T01:09:07;1.67;;;1.13;;
37107;SDS011;23019;49.300;6.846;2022-08-27T01:11:12;1.65;;;1.20;;
37107;SDS011;23019;49.300;6.846;2022-08-27T01:13:16;0.70;;;0.70;;
37107;SDS011;23019;49.300;6.846;2022-08-27T01:15:23;1.20;;;1.10;;
37107;SDS011;23019;49.300;6.846;2022-08-27T01:17:25;0.98;;;0.98;;
37107;SDS011;23019;49.300;6.846;2022-08-27T01:19:34;1.25;;;1.15;;
37107;SDS011;23019;49.300;6.846;2022-08-27T01:21:49;1.65;;;1.55;;
37107;SDS011;23019;49.300;6.846;2022-08-27T01:24:04;1.27;;;1.20;;
37107;SDS011;23019;49.300;6.846;2022-08-27T01:26:23;1.40;;;1.27;;
37107;SDS011;23019;49.300;6.846;2022-08-27T01:28:24;0.93;;;0.93;;
37107;SDS011;23019;49.300;6.846;2022-08-27T01:30:26;1.25;;;1.15;;
37107;SDS011;23019;49.300;6.846;2022-08-27T01:32:29;1.10;;;1.00;;
37107;SDS011;23019;49.300;6.846;2022-08-27T01:34:32;1.30;;;1.20;;
37107;SDS011;23019;49.300;6.846;2022-08-27T01:36:32;2.42;;;1.20;;
37107;SDS011;23019;49.300;6.846;2022-08-27T01:38:33;1.52;;;1.00;;
37107;SDS011;23019;49.300;6.846;2022-08-27T01:40:34;1.50;;;1.35;;
37107;SDS011;23019;49.300;6.846;2022-08-27T01:42:37;1.08;;;1.05;;
37107;SDS011;23019;49.300;6.846;2022-08-27T01:46:49;1.17;;;1.08;;
37107;SDS011;23019;49.300;6.846;2022-08-27T01:48:50;4.03;;;1.23;;
37107;SDS011;23019;49.300;6.846;2022-08-27T01:50:51;2.42;;;1.20;;
37107;SDS011;23019;49.300;6.846;2022-08-27T01:52:52;1.75;;;1.65;;
37107;SDS011;23019;49.300;6.846;2022-08-27T01:54:54;1.23;;;1.13;;
37107;SDS011;23019;49.300;6.846;2022-08-27T01:56:55;2.25;;;1.20;;
37107;SDS011;23019;49.300;6.846;2022-08-27T01:58:55;1.95;;;1.30;;
37107;SDS011;23019;49.300;6.846;2022-08-27T02:00:58;1.30;;;1.20;;
37107;SDS011;23019;49.300;6.846;2022-08-27T02:03:02;1.13;;;1.02;;
37107;SDS011;23019;49.300;6.846;2022-08-27T02:05:04;1.23;;;1.13;;
37107;SDS011;23019;49.300;6.846;2022-08-27T02:07:05;1.10;;;1.10;;
37107;SDS011;23019;49.300;6.846;2022-08-27T02:09:07;1.35;;;1.05;;
37107;SDS011;23019;49.300;6.846;2022-08-27T02:11:08;1.42;;;1.30;;
37107;SDS011;23019;49.300;6.846;2022-08-27T02:13:09;3.42;;;0.95;;
37107;SDS011;23019;49.300;6.846;2022-08-27T02:15:12;1.17;;;1.08;;
37107;SDS011;23019;49.300;6.846;2022-08-27T02:17:13;1.30;;;1.20;;
37107;SDS011;23019;49.300;6.846;2022-08-27T02:19:14;1.23;;;1.13;;
37107;SDS011;23019;49.300;6.846;2022-08-27T02:21:15;2.42;;;1.65;;
37107;SDS011;23019;49.300;6.846;2022-08-27T02:23:16;2.70;;;0.90;;
37107;SDS011;23019;49.300;6.846;2022-08-27T02:25:17;1.25;;;1.15;;
37107;SDS011;23019;49.300;6.846;2022-08-27T02:27:19;1.02;;;0.98;;
37107;SDS011;23019;49.300;6.846;2022-08-27T02:29:20;1.30;;;1.20;;
37107;SDS011;23019;49.300;6.846;2022-08-27T02:31:22;1.10;;;0.73;;
37107;SDS011;23019;49.300;6.846;2022-08-27T02:33:22;1.15;;;1.05;;
37107;SDS011;23019;49.300;6.846;2022-08-27T02:35:23;2.15;;;0.90;;
37107;SDS011;23019;49.300;6.846;2022-08-27T02:37:27;1.55;;;1.40;;
37107;SDS011;23019;49.300;6.846;2022-08-27T02:39:28;1.23;;;1.13;;
37107;SDS011;23019;49.300;6.846;2022-08-27T02:41:28;0.90;;;0.90;;
37107;SDS011;23019;49.300;6.846;2022-08-27T02:43:30;1.40;;;1.30;;
37107;SDS011;23019;49.300;6.846;2022-08-27T02:45:31;1.02;;;1.02;;
37107;SDS011;23019;49.300;6.846;2022-08-27T02:47:32;1.25;;;1.15;;
37107;SDS011;23019;49.300;6.846;2022-08-27T02:49:33;1.35;;;1.25;;
37107;SDS011;23019;49.300;6.846;2022-08-27T02:51:37;1.08;;;1.08;;
37107;SDS011;23019;49.300;6.846;2022-08-27T02:53:37;1.20;;;1.10;;
37107;SDS011;23019;49.300;6.846;2022-08-27T02:55:38;1.55;;;1.00;;
37107;SDS011;23019;49.300;6.846;2022-08-27T02:57:39;1.02;;;0.95;;
37107;SDS011;23019;49.300;6.846;2022-08-27T02:59:43;1.38;;;1.27;;
37107;SDS011;23019;49.300;6.846;2022-08-27T03:01:44;1.30;;;1.13;;
37107;SDS011;23019;49.300;6.846;2022-08-27T03:03:45;1.00;;;1.00;;
37107;SDS011;23019;49.300;6.846;2022-08-27T03:05:46;1.50;;;1.40;;
37107;SDS011;23019;49.300;6.846;2022-08-27T03:07:47;1.45;;;1.30;;
37107;SDS011;23019;49.300;6.846;2022-08-27T03:09:49;1.20;;;1.10;;
37107;SDS011;23019;49.300;6.846;2022-08-27T03:11:50;1.30;;;1.20;;
37107;SDS011;23019;49.300;6.846;2022-08-27T03:13:55;1.13;;;1.02;;
37107;SDS011;23019;49.300;6.846;2022-08-27T03:15:56;1.30;;;1.17;;
37107;SDS011;23019;49.300;6.846;2022-08-27T03:17:57;2.22;;;1.23;;
37107;SDS011;23019;49.300;6.846;2022-08-27T03:20:17;1.38;;;1.27;;
37107;SDS011;23019;49.300;6.846;2022-08-27T03:22:18;1.50;;;1.40;;
37107;SDS011;23019;49.300;6.846;2022-08-27T03:24:18;1.40;;;1.30;;
37107;SDS011;23019;49.300;6.846;2022-08-27T03:26:19;1.42;;;1.35;;
37107;SDS011;23019;49.300;6.846;2022-08-27T03:28:21;1.17;;;1.08;;
37107;SDS011;23019;49.300;6.846;2022-08-27T03:30:26;2.10;;;1.73;;
37107;SDS011;23019;49.300;6.846;2022-08-27T03:32:27;1.70;;;1.60;;
37107;SDS011;23019;49.300;6.846;2022-08-27T03:34:28;1.30;;;1.20;;
37107;SDS011;23019;49.300;6.846;2022-08-27T03:36:32;1.25;;;1.15;;
37107;SDS011;23019;49.300;6.846;2022-08-27T03:38:33;2.20;;;2.10;;
37107;SDS011;23019;49.300;6.846;2022-08-27T03:40:34;1.40;;;1.30;;
37107;SDS011;23019;49.300;6.846;2022-08-27T03:42:36;1.30;;;1.20;;
37107;SDS011;23019;49.300;6.846;2022-08-27T03:44:37;1.40;;;1.30;;
37107;SDS011;23019;49.300;6.846;2022-08-27T03:46:39;1.63;;;1.52;;
37107;SDS011;23019;49.300;6.846;2022-08-27T03:48:40;1.10;;;1.10;;
37107;SDS011;23019;49.300;6.846;2022-08-27T03:50:41;1.90;;;1.60;;
37107;SDS011;23019;49.300;6.846;2022-08-27T03:52:43;1.65;;;1.55;;
37107;SDS011;23019;49.300;6.846;2022-08-27T03:54:44;1.58;;;1.45;;
37107;SDS011;23019;49.300;6.846;2022-08-27T03:56:45;1.38;;;1.27;;
37107;SDS011;23019;49.300;6.846;2022-08-27T03:58:46;1.50;;;1.40;;
37107;SDS011;23019;49.300;6.846;2022-08-27T04:00:46;2.33;;;2.22;;
37107;SDS011;23019;49.300;6.846;2022-08-27T04:02:47;1.50;;;1.40;;
37107;SDS011;23019;49.300;6.846;2022-08-27T04:04:48;1.90;;;1.80;;
37107;SDS011;23019;49.300;6.846;2022-08-27T04:06:49;1.50;;;1.40;;
37107;SDS011;23019;49.300;6.846;2022-08-27T04:08:50;2.83;;;1.83;;
37107;SDS011;23019;49.300;6.846;2022-08-27T04:10:50;1.60;;;1.50;;
37107;SDS011;23019;49.300;6.846;2022-08-27T04:12:53;2.00;;;1.90;;
37107;SDS011;23019;49.300;6.846;2022-08-27T04:14:54;2.00;;;1.90;;
37107;SDS011;23019;49.300;6.846;2022-08-27T04:16:55;1.90;;;1.80;;
37107;SDS011;23019;49.300;6.846;2022-08-27T04:18:56;1.48;;;1.38;;
37107;SDS011;23019;49.300;6.846;2022-08-27T04:20:56;2.05;;;1.58;;
37107;SDS011;23019;49.300;6.846;2022-08-27T04:22:57;2.22;;;2.03;;
37107;SDS011;23019;49.300;6.846;2022-08-27T04:24:58;1.83;;;1.73;;
37107;SDS011;23019;49.300;6.846;2022-08-27T04:26:59;1.92;;;1.45;;
37107;SDS011;23019;49.300;6.846;2022-08-27T04:29:01;1.92;;;1.83;;
37107;SDS011;23019;49.300;6.846;2022-08-27T04:31:02;2.45;;;2.35;;
37107;SDS011;23019;49.300;6.846;2022-08-27T04:33:03;1.65;;;1.55;;
37107;SDS011;23019;49.300;6.846;2022-08-27T04:35:04;2.22;;;2.10;;
37107;SDS011;23019;49.300;6.846;2022-08-27T04:37:05;1.95;;;1.85;;
37107;SDS011;23019;49.300;6.846;2022-08-27T04:39:06;2.03;;;1.92;;
37107;SDS011;23019;49.300;6.846;2022-08-27T04:41:07;2.05;;;1.95;;
37107;SDS011;23019;49.300;6.846;2022-08-27T04:43:25;2.15;;;2.05;;
37107;SDS011;23019;49.300;6.846;2022-08-27T04:45:27;2.05;;;1.95;;
37107;SDS011;23019;49.300;6.846;2022-08-27T04:47:28;1.85;;;1.75;;
37107;SDS011;23019;49.300;6.846;2022-08-27T04:49:30;2.25;;;2.15;;
37107;SDS011;23019;49.300;6.846;2022-08-27T04:51:33;2.33;;;2.15;;
37107;SDS011;23019;49.300;6.846;2022-08-27T04:53:33;2.28;;;2.17;;
37107;SDS011;23019;49.300;6.846;2022-08-27T04:55:39;2.58;;;1.92;;
37107;SDS011;23019;49.300;6.846;2022-08-27T04:57:42;3.00;;;2.08;;
37107;SDS011;23019;49.300;6.846;2022-08-27T04:59:42;1.75;;;1.65;;
37107;SDS011;23019;49.300;6.846;2022-08-27T05:01:43;2.20;;;1.90;;
37107;SDS011;23019;49.300;6.846;2022-08-27T05:03:44;2.08;;;1.98;;
37107;SDS011;23019;49.300;6.846;2022-08-27T05:05:45;1.88;;;1.77;;
37107;SDS011;23019;49.300;6.846;2022-08-27T05:07:46;1.88;;;1.77;;
37107;SDS011;23019;49.300;6.846;2022-08-27T05:09:47;1.60;;;1.50;;
37107;SDS011;23019;49.300;6.846;2022-08-27T05:11:47;2.13;;;1.92;;
37107;SDS011;23019;49.300;6.846;2022-08-27T05:13:51;1.73;;;1.63;;
37107;SDS011;23019;49.300;6.846;2022-08-27T05:15:59;2.45;;;1.80;;
37107;SDS011;23019;49.300;6.846;2022-08-27T05:18:01;2.47;;;2.38;;
37107;SDS011;23019;49.300;6.846;2022-08-27T05:20:02;2.35;;;2.25;;
37107;SDS011;23019;49.300;6.846;2022-08-27T05:22:04;1.90;;;1.80;;
37107;SDS011;23019;49.300;6.846;2022-08-27T05:24:05;2.05;;;1.95;;
37107;SDS011;23019;49.300;6.846;2022-08-27T05:26:07;1.85;;;1.75;;
37107;SDS011;23019;49.300;6.846;2022-08-27T05:28:08;2.60;;;2.40;;
37107;SDS011;23019;49.300;6.846;2022-08-27T05:30:09;2.20;;;2.10;;
37107;SDS011;23019;49.300;6.846;2022-08-27T05:32:11;1.48;;;1.38;;
37107;SDS011;23019;49.300;6.846;2022-08-27T05:34:12;1.85;;;1.75;;
37107;SDS011;23019;49.300;6.846;2022-08-27T05:36:15;2.15;;;2.05;;
37107;SDS011;23019;49.300;6.846;2022-08-27T05:38:16;2.15;;;2.05;;
37107;SDS011;23019;49.300;6.846;2022-08-27T05:40:20;2.45;;;2.33;;
37107;SDS011;23019;49.300;6.846;2022-08-27T05:42:22;2.00;;;1.90;;
37107;SDS011;23019;49.300;6.846;2022-08-27T05:44:23;4.43;;;2.50;;
37107;SDS011;23019;49.300;6.846;2022-08-27T05:46:23;2.40;;;2.00;;
37107;SDS011;23019;49.300;6.846;2022-08-27T05:48:25;2.00;;;1.90;;
37107;SDS011;23019;49.300;6.846;2022-08-27T05:50:26;1.85;;;1.75;;
37107;SDS011;23019;49.300;6.846;2022-08-27T05:52:27;2.00;;;1.90;;
37107;SDS011;23019;49.300;6.846;2022-08-27T05:54:27;2.25;;;2.15;;
37107;SDS011;23019;49.300;6.846;2022-08-27T05:56:29;2.80;;;2.13;;
37107;SDS011;23019;49.300;6.846;2022-08-27T05:58:32;2.22;;;2.03;;
37107;SDS011;23019;49.300;6.846;2022-08-27T06:00:51;1.90;;;1.80;;
37107;SDS011;23019;49.300;6.846;2022-08-27T06:03:04;2.47;;;2.38;;
37107;SDS011;23019;49.300;6.846;2022-08-27T06:05:06;2.47;;;2.25;;
37107;SDS011;23019;49.300;6.846;2022-08-27T06:07:07;2.20;;;2.00;;
37107;SDS011;23019;49.300;6.846;2022-08-27T06:09:10;3.13;;;2.85;;
37107;SDS011;23019;49.300;6.846;2022-08-27T06:11:13;2.22;;;2.13;;
37107;SDS011;23019;49.300;6.846;2022-08-27T06:13:13;2.30;;;2.10;;
37107;SDS011;23019;49.300;6.846;2022-08-27T06:15:14;2.28;;;2.17;;
37107;SDS011;23019;49.300;6.846;2022-08-27T06:17:15;2.55;;;2.45;;
37107;SDS011;23019;49.300;6.846;2022-08-27T06:19:16;3.13;;;2.35;;
37107;SDS011;23019;49.300;6.846;2022-08-27T06:21:17;2.20;;;2.00;;
37107;SDS011;23019;49.300;6.846;2022-08-27T06:23:18;2.97;;;2.78;;
37107;SDS011;23019;49.300;6.846;2022-08-27T06:25:19;4.75;;;2.25;;
37107;SDS011;23019;49.300;6.846;2022-08-27T06:27:20;2.85;;;2.55;;
37107;SDS011;23019;49.300;6.846;2022-08-27T06:29:20;2.38;;;2.28;;
37107;SDS011;23019;49.300;6.846;2022-08-27T06:31:23;2.35;;;2.25;;
37107;SDS011;23019;49.300;6.846;2022-08-27T06:33:25;2.75;;;2.55;;
37107;SDS011;23019;49.300;6.846;2022-08-27T06:35:26;3.25;;;3.03;;
37107;SDS011;23019;49.300;6.846;2022-08-27T06:37:27;2.92;;;2.78;;
37107;SDS011;23019;49.300;6.846;2022-08-27T06:39:29;3.20;;;2.97;;
37107;SDS011;23019;49.300;6.846;2022-08-27T06:41:30;2.08;;;1.98;;
37107;SDS011;23019;49.300;6.846;2022-08-27T06:43:39;2.63;;;2.40;;
37107;SDS011;23019;49.300;6.846;2022-08-27T06:47:41;2.97;;;2.45;;
37107;SDS011;23019;49.300;6.846;2022-08-27T06:49:42;2.63;;;2.42;;
37107;SDS011;23019;49.300;6.846;2022-08-27T06:51:44;2.75;;;2.65;;
37107;SDS011;23019;49.300;6.846;2022-08-27T06:53:46;2.38;;;2.17;;
37107;SDS011;23019;49.300;6.846;2022-08-27T06:55:47;3.60;;;3.40;;
37107;SDS011;23019;49.300;6.846;2022-08-27T06:57:48;2.70;;;2.60;;
37107;SDS011;23019;49.300;6.846;2022-08-27T06:59:49;2.92;;;2.78;;
37107;SDS011;23019;49.300;6.846;2022-08-27T07:01:50;3.03;;;2.83;;
37107;SDS011;23019;49.300;6.846;2022-08-27T07:03:53;2.28;;;2.17;;
37107;SDS011;23019;49.300;6.846;2022-08-27T07:06:02;3.20;;;2.95;;
37107;SDS011;23019;49.300;6.846;2022-08-27T07:08:07;2.80;;;2.60;;
37107;SDS011;23019;49.300;6.846;2022-08-27T07:10:08;2.90;;;2.70;;
37107;SDS011;23019;49.300;6.846;2022-08-27T07:12:10;3.08;;;2.90;;
37107;SDS011;23019;49.300;6.846;2022-08-27T07:14:10;3.15;;;2.95;;
37107;SDS011;23019;49.300;6.846;2022-08-27T07:16:13;2.50;;;2.40;;
37107;SDS011;23019;49.300;6.846;2022-08-27T07:18:15;3.47;;;3.17;;
37107;SDS011;23019;49.300;6.846;2022-08-27T07:20:16;2.90;;;2.70;;
37107;SDS011;23019;49.300;6.846;2022-08-27T07:22:18;2.65;;;2.55;;
37107;SDS011;23019;49.300;6.846;2022-08-27T07:24:19;3.47;;;2.88;;
37107;SDS011;23019;49.300;6.846;2022-08-27T07:26:20;3.10;;;2.90;;
37107;SDS011;23019;49.300;6.846;2022-08-27T07:28:22;3.03;;;2.83;;
37107;SDS011;23019;49.300;6.846;2022-08-27T07:30:23;2.90;;;2.80;;
37107;SDS011;23019;49.300;6.846;2022-08-27T07:32:25;3.88;;;3.58;;
37107;SDS011;23019;49.300;6.846;2022-08-27T07:34:26;2.55;;;2.45;;
37107;SDS011;23019;49.300;6.846;2022-08-27T07:36:27;3.63;;;3.42;;
37107;SDS011;23019;49.300;6.846;2022-08-27T07:38:27;4.55;;;4.25;;
37107;SDS011;23019;49.300;6.846;2022-08-27T07:40:28;4.78;;;4.35;;
37107;SDS011;23019;49.300;6.846;2022-08-27T07:42:29;5.10;;;4.78;;
37107;SDS011;23019;49.300;6.846;2022-08-27T07:44:48;3.50;;;3.30;;
37107;SDS011;23019;49.300;6.846;2022-08-27T07:46:49;3.70;;;3.40;;
37107;SDS011;23019;49.300;6.846;2022-08-27T07:48:50;3.45;;;3.25;;
37107;SDS011;23019;49.300;6.846;2022-08-27T07:50:52;3.60;;;3.13;;
37107;SDS011;23019;49.300;6.846;2022-08-27T07:52:53;4.47;;;3.70;;
37107;SDS011;23019;49.300;6.846;2022-08-27T07:54:53;5.00;;;3.10;;
37107;SDS011;23019;49.300;6.846;2022-08-27T07:56:54;3.83;;;3.53;;
37107;SDS011;23019;49.300;6.846;2022-08-27T07:58:55;4.32;;;4.03;;
37107;SDS011;23019;49.300;6.846;2022-08-27T08:00:56;4.10;;;3.80;;
37107;SDS011;23019;49.300;6.846;2022-08-27T08:02:57;3.40;;;3.10;;
37107;SDS011;23019;49.300;6.846;2022-08-27T08:05:01;3.55;;;3.35;;
37107;SDS011;23019;49.300;6.846;2022-08-27T08:07:03;3.08;;;2.88;;
37107;SDS011;23019;49.300;6.846;2022-08-27T08:09:04;3.72;;;3.53;;
37107;SDS011;23019;49.300;6.846;2022-08-27T08:11:06;2.97;;;2.85;;
37107;SDS011;23019;49.300;6.846;2022-08-27T08:13:09;2.92;;;2.83;;
37107;SDS011;23019;49.300;6.846;2022-08-27T08:15:09;3.20;;;2.90;;
37107;SDS011;23019;49.300;6.846;2022-08-27T08:17:11;3.63;;;3.42;;
37107;SDS011;23019;49.300;6.846;2022-08-27T08:19:13;3.22;;;3.03;;
37107;SDS011;23019;49.300;6.846;2022-08-27T08:21:13;3.75;;;3.55;;
37107;SDS011;23019;49.300;6.846;2022-08-27T08:23:14;5.53;;;5.13;;
37107;SDS011;23019;49.300;6.846;2022-08-27T08:25:15;4.95;;;4.72;;
37107;SDS011;23019;49.300;6.846;2022-08-27T08:27:16;6.03;;;5.70;;
37107;SDS011;23019;49.300;6.846;2022-08-27T08:29:17;4.80;;;4.60;;
37107;SDS011;23019;49.300;6.846;2022-08-27T08:31:17;5.18;;;4.78;;
37107;SDS011;23019;49.300;6.846;2022-08-27T08:33:19;4.03;;;3.72;;
37107;SDS011;23019;49.300;6.846;2022-08-27T08:35:20;3.65;;;3.45;;
37107;SDS011;23019;49.300;6.846;2022-08-27T08:37:20;3.85;;;3.65;;
37107;SDS011;23019;49.300;6.846;2022-08-27T08:39:23;3.13;;;2.92;;
37107;SDS011;23019;49.300;6.846;2022-08-27T08:41:29;3.13;;;2.97;;
37107;SDS011;23019;49.300;6.846;2022-08-27T08:43:38;3.65;;;3.45;;
37107;SDS011;23019;49.300;6.846;2022-08-27T08:45:45;4.22;;;4.03;;
37107;SDS011;23019;49.300;6.846;2022-08-27T08:47:49;3.45;;;3.15;;
37107;SDS011;23019;49.300;6.846;2022-08-27T08:49:54;3.78;;;3.58;;
37107;SDS011;23019;49.300;6.846;2022-08-27T08:52:24;3.10;;;2.90;;
37107;SDS011;23019;49.300;6.846;2022-08-27T08:54:26;2.60;;;2.50;;
37107;SDS011;23019;49.300;6.846;2022-08-27T08:56:39;3.42;;;3.22;;
37107;SDS011;23019;49.300;6.846;2022-08-27T08:59:02;3.55;;;3.35;;
37107;SDS011;23019;49.300;6.846;2022-08-27T09:01:04;2.80;;;2.70;;
37107;SDS011;23019;49.300;6.846;2022-08-27T09:03:08;3.78;;;3.00;;
37107;SDS011;23019;49.300;6.846;2022-08-27T09:05:11;3.67;;;3.38;;
37107;SDS011;23019;49.300;6.846;2022-08-27T09:07:31;3.83;;;3.50;;
37107;SDS011;23019;49.300;6.846;2022-08-27T09:09:57;3.00;;;2.80;;
37107;SDS011;23019;49.300;6.846;2022-08-27T09:12:10;2.95;;;2.85;;
37107;SDS011;23019;49.300;6.846;2022-08-27T09:14:27;3.00;;;2.90;;
37107;SDS011;23019;49.300;6.846;2022-08-27T09:16:35;2.92;;;2.72;;
37107;SDS011;23019;49.300;6.846;2022-08-27T09:18:38;2.90;;;2.70;;
37107;SDS011;23019;49.300;6.846;2022-08-27T09:20:41;3.30;;;3.10;;
37107;SDS011;23019;49.300;6.846;2022-08-27T09:22:56;2.67;;;2.58;;
37107;SDS011;23019;49.300;6.846;2022-08-27T09:25:11;3.22;;;3.03;;
37107;SDS011;23019;49.300;6.846;2022-08-27T09:27:18;2.95;;;2.85;;
37107;SDS011;23019;49.300;6.846;2022-08-27T09:29:24;3.67;;;3.38;;
37107;SDS011;23019;49.300;6.846;2022-08-27T09:31:26;3.10;;;2.92;;
37107;SDS011;23019;49.300;6.846;2022-08-27T09:33:27;2.50;;;2.40;;
37107;SDS011;23019;49.300;6.846;2022-08-27T09:35:33;2.88;;;2.67;;
37107;SDS011;23019;49.300;6.846;2022-08-27T09:37:43;2.65;;;2.55;;
37107;SDS011;23019;49.300;6.846;2022-08-27T09:39:46;2.60;;;2.50;;
37107;SDS011;23019;49.300;6.846;2022-08-27T09:41:51;2.42;;;2.33;;
37107;SDS011;23019;49.300;6.846;2022-08-27T09:43:59;2.90;;;2.70;;
37107;SDS011;23019;49.300;6.846;2022-08-27T09:46:06;2.42;;;2.33;;
37107;SDS011;23019;49.300;6.846;2022-08-27T09:48:28;2.67;;;2.58;;
37107;SDS011;23019;49.300;6.846;2022-08-27T09:50:35;2.47;;;2.38;;
37107;SDS011;23019;49.300;6.846;2022-08-27T09:54:54;2.13;;;2.03;;
37107;SDS011;23019;49.300;6.846;2022-08-27T09:56:55;2.22;;;2.13;;
37107;SDS011;23019;49.300;6.846;2022-08-27T09:59:04;2.83;;;2.00;;
37107;SDS011;23019;49.300;6.846;2022-08-27T10:01:21;2.60;;;2.50;;
37107;SDS011;23019;49.300;6.846;2022-08-27T10:03:24;2.75;;;2.55;;
37107;SDS011;23019;49.300;6.846;2022-08-27T10:05:38;25.58;;;4.25;;
37107;SDS011;23019;49.300;6.846;2022-08-27T10:07:55;41.70;;;5.43;;
37107;SDS011;23019;49.300;6.846;2022-08-27T10:12:25;46.60;;;5.47;;
37107;SDS011;23019;49.300;6.846;2022-08-27T10:14:37;30.65;;;3.58;;
37107;SDS011;23019;49.300;6.846;2022-08-27T10:21:05;18.25;;;3.72;;
37107;SDS011;23019;49.300;6.846;2022-08-27T10:23:30;25.42;;;4.65;;
37107;SDS011;23019;49.300;6.846;2022-08-27T10:25:48;10.65;;;3.72;;
37107;SDS011;23019;49.300;6.846;2022-08-27T10:30:05;10.20;;;4.03;;
37107;SDS011;23019;49.300;6.846;2022-08-27T10:34:39;9.73;;;3.65;;
37107;SDS011;23019;49.300;6.846;2022-08-27T10:42:18;20.33;;;4.18;;
37107;SDS011;23019;49.300;6.846;2022-08-27T10:44:32;12.35;;;3.80;;
37107;SDS011;23019;49.300;6.846;2022-08-27T10:51:32;8.70;;;3.22;;
37107;SDS011;23019;49.300;6.846;2022-08-27T10:55:48;3.72;;;3.00;;
37107;SDS011;23019;49.300;6.846;2022-08-27T11:00:27;6.60;;;3.38;;
37107;SDS011;23019;49.300;6.846;2022-08-27T11:02:53;3.42;;;3.03;;
37107;SDS011;23019;49.300;6.846;2022-08-27T11:07:28;7.50;;;3.13;;
37107;SDS011;23019;49.300;6.846;2022-08-27T11:11:49;3.75;;;3.25;;
37107;SDS011;23019;49.300;6.846;2022-08-27T11:13:55;7.00;;;3.05;;
37107;SDS011;23019;49.300;6.846;2022-08-27T11:15:58;5.65;;;3.50;;
37107;SDS011;23019;49.300;6.846;2022-08-27T11:20:17;4.68;;;3.50;;
37107;SDS011;23019;49.300;6.846;2022-08-27T11:22:31;3.42;;;3.10;;
37107;SDS011;23019;49.300;6.846;2022-08-27T11:24:46;3.63;;;3.28;;
37107;SDS011;23019;49.300;6.846;2022-08-27T11:26:54;4.25;;;3.13;;
37107;SDS011;23019;49.300;6.846;2022-08-27T11:29:02;4.15;;;3.30;;
37107;SDS011;23019;49.300;6.846;2022-08-27T11:31:15;3.40;;;3.03;;
37107;SDS011;23019;49.300;6.846;2022-08-27T11:33:24;4.15;;;3.42;;
37107;SDS011;23019;49.300;6.846;2022-08-27T11:37:55;6.60;;;3.25;;
37107;SDS011;23019;49.300;6.846;2022-08-27T11:43:01;3.08;;;2.88;;
37107;SDS011;23019;49.300;6.846;2022-08-27T11:45:07;4.00;;;3.55;;
37107;SDS011;23019;49.300;6.846;2022-08-27T11:47:22;2.83;;;2.67;;
37107;SDS011;23019;49.300;6.846;2022-08-27T11:49:26;2.80;;;2.70;;
37107;SDS011;23019;49.300;6.846;2022-08-27T11:51:33;2.80;;;2.65;;
37107;SDS011;23019;49.300;6.846;2022-08-27T11:53:52;3.08;;;2.88;;
37107;SDS011;23019;49.300;6.846;2022-08-27T11:55:55;2.90;;;2.80;;
37107;SDS011;23019;49.300;6.846;2022-08-27T12:00:21;2.97;;;2.88;;
37107;SDS011;23019;49.300;6.846;2022-08-27T12:02:30;4.13;;;3.08;;
37107;SDS011;23019;49.300;6.846;2022-08-27T12:06:43;3.17;;;2.97;;
37107;SDS011;23019;49.300;6.846;2022-08-27T12:08:49;3.90;;;2.95;;
37107;SDS011;23019;49.300;6.846;2022-08-27T12:13:24;2.80;;;2.60;;
37107;SDS011;23019;49.300;6.846;2022-08-27T12:22:43;2.60;;;2.40;;
37107;SDS011;23019;49.300;6.846;2022-08-27T12:25:04;2.70;;;2.60;;
37107;SDS011;23019;49.300;6.846;2022-08-27T12:27:14;3.13;;;2.83;;
37107;SDS011;23019;49.300;6.846;2022-08-27T12:29:40;3.05;;;2.72;;
37107;SDS011;23019;49.300;6.846;2022-08-27T12:31:47;3.10;;;2.90;;
37107;SDS011;23019;49.300;6.846;2022-08-27T12:33:50;2.60;;;2.40;;
37107;SDS011;23019;49.300;6.846;2022-08-27T12:35:53;2.65;;;2.55;;
37107;SDS011;23019;49.300;6.846;2022-08-27T12:38:04;2.60;;;2.50;;
37107;SDS011;23019;49.300;6.846;2022-08-27T12:42:22;2.90;;;2.80;;
37107;SDS011;23019;49.300;6.846;2022-08-27T12:44:29;2.72;;;2.63;;
37107;SDS011;23019;49.300;6.846;2022-08-27T12:46:44;2.72;;;2.63;;
37107;SDS011;23019;49.300;6.846;2022-08-27T12:48:55;2.42;;;2.33;;
37107;SDS011;23019;49.300;6.846;2022-08-27T12:51:08;2.97;;;2.53;;
37107;SDS011;23019;49.300;6.846;2022-08-27T12:55:52;2.70;;;2.50;;
37107;SDS011;23019;49.300;6.846;2022-08-27T12:58:19;6.05;;;2.70;;
37107;SDS011;23019;49.300;6.846;2022-08-27T13:00:23;8.55;;;2.65;;
37107;SDS011;23019;49.300;6.846;2022-08-27T13:02:36;2.88;;;2.67;;
37107;SDS011;23019;49.300;6.846;2022-08-27T13:04:47;4.38;;;2.92;;
37107;SDS011;23019;49.300;6.846;2022-08-27T13:06:48;5.43;;;2.95;;
37107;SDS011;23019;49.300;6.846;2022-08-27T13:08:52;11.00;;;2.60;;
37107;SDS011;23019;49.300;6.846;2022-08-27T13:10:54;7.10;;;3.22;;
37107;SDS011;23019;49.300;6.846;2022-08-27T13:13:16;134.45;;;14.68;;
37107;SDS011;23019;49.300;6.846;2022-08-27T13:15:19;71.68;;;9.18;;
37107;SDS011;23019;49.300;6.846;2022-08-27T13:17:22;55.35;;;7.40;;
37107;SDS011;23019;49.300;6.846;2022-08-27T13:21:33;34.40;;;5.00;;
37107;SDS011;23019;49.300;6.846;2022-08-27T13:23:34;40.13;;;5.10;;
37107;SDS011;23019;49.300;6.846;2022-08-27T13:25:35;23.42;;;5.60;;
37107;SDS011;23019;49.300;6.846;2022-08-27T13:27:36;36.38;;;6.32;;
37107;SDS011;23019;49.300;6.846;2022-08-27T13:29:37;24.33;;;5.47;;
37107;SDS011;23019;49.300;6.846;2022-08-27T13:31:38;32.15;;;4.97;;
37107;SDS011;23019;49.300;6.846;2022-08-27T13:33:40;16.67;;;5.38;;
37107;SDS011;23019;49.300;6.846;2022-08-27T13:35:41;23.58;;;4.05;;
37107;SDS011;23019;49.300;6.846;2022-08-27T13:37:45;27.08;;;5.40;;